sensor_id;sensor_type;location;lat;lon;timestamp;P1;durP1;ratioP1;P2;durP2;ratioP2
34741;SDS011;20968;42.696;23.360;2022-08-19T00:02:03;13.13;;;10.93;;
34741;SDS011;20968;42.696;23.360;2022-08-19T00:04:30;17.08;;;10.68;;
34741;SDS011;20968;42.696;23.360;2022-08-19T00:06:58;11.77;;;9.77;;
34741;SDS011;20968;42.696;23.360;2022-08-19T00:09:24;13.45;;;8.77;;
34741;SDS011;20968;42.696;23.360;2022-08-19T00:11:51;11.30;;;9.23;;
34741;SDS011;20968;42.696;23.360;2022-08-19T00:14:18;13.63;;;8.50;;
34741;SDS011;20968;42.696;23.360;2022-08-19T00:16:46;11.13;;;8.38;;
34741;SDS011;20968;42.696;23.360;2022-08-19T00:19:12;13.00;;;8.00;;
34741;SDS011;20968;42.696;23.360;2022-08-19T00:21:40;11.23;;;8.45;;
34741;SDS011;20968;42.696;23.360;2022-08-19T00:24:09;9.00;;;6.97;;
34741;SDS011;20968;42.696;23.360;2022-08-19T00:26:36;7.43;;;6.18;;
34741;SDS011;20968;42.696;23.360;2022-08-19T00:29:03;10.27;;;5.97;;
34741;SDS011;20968;42.696;23.360;2022-08-19T00:31:31;8.05;;;6.22;;
34741;SDS011;20968;42.696;23.360;2022-08-19T00:33:57;9.48;;;6.00;;
34741;SDS011;20968;42.696;23.360;2022-08-19T00:36:23;8.02;;;6.25;;
34741;SDS011;20968;42.696;23.360;2022-08-19T00:38:48;7.20;;;5.32;;
34741;SDS011;20968;42.696;23.360;2022-08-19T00:41:18;13.65;;;6.18;;
34741;SDS011;20968;42.696;23.360;2022-08-19T00:46:32;14.95;;;6.75;;
34741;SDS011;20968;42.696;23.360;2022-08-19T00:49:00;7.90;;;5.82;;
34741;SDS011;20968;42.696;23.360;2022-08-19T00:51:31;16.70;;;5.97;;
34741;SDS011;20968;42.696;23.360;2022-08-19T00:53:57;8.50;;;5.20;;
34741;SDS011;20968;42.696;23.360;2022-08-19T00:56:25;7.72;;;5.03;;
34741;SDS011;20968;42.696;23.360;2022-08-19T00:58:52;6.65;;;4.80;;
34741;SDS011;20968;42.696;23.360;2022-08-19T01:01:21;7.43;;;5.28;;
34741;SDS011;20968;42.696;23.360;2022-08-19T01:03:46;7.38;;;5.32;;
34741;SDS011;20968;42.696;23.360;2022-08-19T01:06:12;9.00;;;5.32;;
34741;SDS011;20968;42.696;23.360;2022-08-19T01:08:38;8.02;;;4.85;;
34741;SDS011;20968;42.696;23.360;2022-08-19T01:11:03;7.03;;;5.38;;
34741;SDS011;20968;42.696;23.360;2022-08-19T01:13:30;8.23;;;5.60;;
34741;SDS011;20968;42.696;23.360;2022-08-19T01:16:00;13.98;;;6.15;;
34741;SDS011;20968;42.696;23.360;2022-08-19T01:18:28;11.40;;;6.53;;
34741;SDS011;20968;42.696;23.360;2022-08-19T01:24:07;9.50;;;5.47;;
34741;SDS011;20968;42.696;23.360;2022-08-19T01:26:37;9.18;;;6.30;;
34741;SDS011;20968;42.696;23.360;2022-08-19T01:29:04;7.82;;;5.97;;
34741;SDS011;20968;42.696;23.360;2022-08-19T01:31:32;7.25;;;5.72;;
34741;SDS011;20968;42.696;23.360;2022-08-19T01:33:59;8.15;;;5.50;;
34741;SDS011;20968;42.696;23.360;2022-08-19T01:36:30;7.03;;;5.80;;
34741;SDS011;20968;42.696;23.360;2022-08-19T01:39:07;6.35;;;5.00;;
34741;SDS011;20968;42.696;23.360;2022-08-19T01:41:36;5.72;;;5.15;;
34741;SDS011;20968;42.696;23.360;2022-08-19T01:44:02;11.73;;;5.45;;
34741;SDS011;20968;42.696;23.360;2022-08-19T01:46:29;7.15;;;5.30;;
34741;SDS011;20968;42.696;23.360;2022-08-19T01:48:55;8.75;;;6.40;;
34741;SDS011;20968;42.696;23.360;2022-08-19T01:51:24;5.63;;;4.82;;
34741;SDS011;20968;42.696;23.360;2022-08-19T01:53:49;5.40;;;4.30;;
34741;SDS011;20968;42.696;23.360;2022-08-19T01:56:16;8.10;;;4.90;;
34741;SDS011;20968;42.696;23.360;2022-08-19T01:58:44;6.68;;;5.05;;
34741;SDS011;20968;42.696;23.360;2022-08-19T02:01:15;10.13;;;4.80;;
34741;SDS011;20968;42.696;23.360;2022-08-19T02:03:41;7.70;;;4.72;;
34741;SDS011;20968;42.696;23.360;2022-08-19T02:06:07;11.10;;;6.28;;
34741;SDS011;20968;42.696;23.360;2022-08-19T02:08:33;7.20;;;5.68;;
34741;SDS011;20968;42.696;23.360;2022-08-19T02:14:05;7.32;;;5.75;;
34741;SDS011;20968;42.696;23.360;2022-08-19T02:26:05;6.88;;;5.25;;
34741;SDS011;20968;42.696;23.360;2022-08-19T02:28:31;6.13;;;5.28;;
34741;SDS011;20968;42.696;23.360;2022-08-19T02:30:57;9.85;;;5.80;;
34741;SDS011;20968;42.696;23.360;2022-08-19T02:33:23;10.57;;;5.90;;
34741;SDS011;20968;42.696;23.360;2022-08-19T02:35:49;8.38;;;5.13;;
34741;SDS011;20968;42.696;23.360;2022-08-19T02:38:14;5.57;;;5.03;;
34741;SDS011;20968;42.696;23.360;2022-08-19T02:40:53;8.77;;;6.07;;
34741;SDS011;20968;42.696;23.360;2022-08-19T02:43:21;10.80;;;6.05;;
34741;SDS011;20968;42.696;23.360;2022-08-19T02:45:48;7.15;;;5.10;;
34741;SDS011;20968;42.696;23.360;2022-08-19T02:48:15;9.63;;;6.20;;
34741;SDS011;20968;42.696;23.360;2022-08-19T02:50:42;8.27;;;6.13;;
34741;SDS011;20968;42.696;23.360;2022-08-19T02:53:07;10.57;;;6.47;;
34741;SDS011;20968;42.696;23.360;2022-08-19T02:55:33;9.60;;;6.15;;
34741;SDS011;20968;42.696;23.360;2022-08-19T02:57:59;6.50;;;5.65;;
34741;SDS011;20968;42.696;23.360;2022-08-19T03:00:25;8.85;;;5.65;;
34741;SDS011;20968;42.696;23.360;2022-08-19T03:02:51;7.70;;;6.30;;
34741;SDS011;20968;42.696;23.360;2022-08-19T03:05:17;7.45;;;5.72;;
34741;SDS011;20968;42.696;23.360;2022-08-19T03:07:43;8.10;;;6.13;;
34741;SDS011;20968;42.696;23.360;2022-08-19T03:10:08;8.73;;;6.22;;
34741;SDS011;20968;42.696;23.360;2022-08-19T03:12:37;8.38;;;6.30;;
34741;SDS011;20968;42.696;23.360;2022-08-19T03:15:07;10.15;;;5.70;;
34741;SDS011;20968;42.696;23.360;2022-08-19T03:17:33;7.80;;;5.68;;
34741;SDS011;20968;42.696;23.360;2022-08-19T03:20:00;6.25;;;5.65;;
34741;SDS011;20968;42.696;23.360;2022-08-19T03:22:25;9.07;;;5.75;;
34741;SDS011;20968;42.696;23.360;2022-08-19T03:24:51;6.30;;;5.68;;
34741;SDS011;20968;42.696;23.360;2022-08-19T03:27:16;10.02;;;5.43;;
34741;SDS011;20968;42.696;23.360;2022-08-19T03:29:42;8.13;;;6.55;;
34741;SDS011;20968;42.696;23.360;2022-08-19T03:32:08;8.43;;;6.13;;
34741;SDS011;20968;42.696;23.360;2022-08-19T03:34:34;9.05;;;5.57;;
34741;SDS011;20968;42.696;23.360;2022-08-19T03:37:06;9.45;;;6.18;;
34741;SDS011;20968;42.696;23.360;2022-08-19T03:39:36;6.93;;;6.07;;
34741;SDS011;20968;42.696;23.360;2022-08-19T03:42:09;13.48;;;5.95;;
34741;SDS011;20968;42.696;23.360;2022-08-19T03:44:35;8.00;;;6.03;;
34741;SDS011;20968;42.696;23.360;2022-08-19T03:47:02;6.78;;;5.78;;
34741;SDS011;20968;42.696;23.360;2022-08-19T03:49:29;11.18;;;6.80;;
34741;SDS011;20968;42.696;23.360;2022-08-19T03:51:58;10.23;;;6.55;;
34741;SDS011;20968;42.696;23.360;2022-08-19T03:54:26;10.35;;;6.95;;
34741;SDS011;20968;42.696;23.360;2022-08-19T03:56:53;14.75;;;9.35;;
34741;SDS011;20968;42.696;23.360;2022-08-19T03:59:22;17.58;;;10.13;;
34741;SDS011;20968;42.696;23.360;2022-08-19T04:04:43;11.75;;;9.30;;
34741;SDS011;20968;42.696;23.360;2022-08-19T04:07:09;12.52;;;8.73;;
34741;SDS011;20968;42.696;23.360;2022-08-19T04:09:36;13.30;;;8.13;;
34741;SDS011;20968;42.696;23.360;2022-08-19T04:12:02;19.00;;;10.90;;
34741;SDS011;20968;42.696;23.360;2022-08-19T04:14:31;14.75;;;8.15;;
34741;SDS011;20968;42.696;23.360;2022-08-19T04:16:57;9.45;;;8.07;;
34741;SDS011;20968;42.696;23.360;2022-08-19T04:19:24;8.43;;;7.47;;
34741;SDS011;20968;42.696;23.360;2022-08-19T04:21:54;12.52;;;7.65;;
34741;SDS011;20968;42.696;23.360;2022-08-19T04:24:20;13.73;;;8.20;;
34741;SDS011;20968;42.696;23.360;2022-08-19T04:26:47;12.50;;;7.25;;
34741;SDS011;20968;42.696;23.360;2022-08-19T04:29:14;13.65;;;8.00;;
34741;SDS011;20968;42.696;23.360;2022-08-19T04:31:49;13.23;;;8.45;;
34741;SDS011;20968;42.696;23.360;2022-08-19T04:34:18;12.82;;;6.75;;
34741;SDS011;20968;42.696;23.360;2022-08-19T04:36:48;19.85;;;7.45;;
34741;SDS011;20968;42.696;23.360;2022-08-19T04:39:16;15.43;;;7.55;;
34741;SDS011;20968;42.696;23.360;2022-08-19T04:41:44;13.20;;;7.05;;
34741;SDS011;20968;42.696;23.360;2022-08-19T04:44:31;10.50;;;7.20;;
34741;SDS011;20968;42.696;23.360;2022-08-19T04:46:57;12.60;;;6.63;;
34741;SDS011;20968;42.696;23.360;2022-08-19T04:49:23;7.30;;;6.10;;
34741;SDS011;20968;42.696;23.360;2022-08-19T04:51:49;12.77;;;7.68;;
34741;SDS011;20968;42.696;23.360;2022-08-19T04:54:33;10.40;;;6.88;;
34741;SDS011;20968;42.696;23.360;2022-08-19T04:57:32;9.52;;;6.97;;
34741;SDS011;20968;42.696;23.360;2022-08-19T04:59:54;10.50;;;6.88;;
34741;SDS011;20968;42.696;23.360;2022-08-19T05:02:20;10.05;;;6.40;;
34741;SDS011;20968;42.696;23.360;2022-08-19T05:04:48;8.13;;;6.50;;
34741;SDS011;20968;42.696;23.360;2022-08-19T05:07:13;8.65;;;6.72;;
34741;SDS011;20968;42.696;23.360;2022-08-19T05:09:38;9.50;;;6.82;;
34741;SDS011;20968;42.696;23.360;2022-08-19T05:12:04;7.57;;;6.60;;
34741;SDS011;20968;42.696;23.360;2022-08-19T05:14:31;8.60;;;6.63;;
34741;SDS011;20968;42.696;23.360;2022-08-19T05:17:00;10.00;;;7.25;;
34741;SDS011;20968;42.696;23.360;2022-08-19T05:19:26;11.75;;;7.25;;
34741;SDS011;20968;42.696;23.360;2022-08-19T05:22:09;9.55;;;6.45;;
34741;SDS011;20968;42.696;23.360;2022-08-19T05:24:54;9.00;;;6.75;;
34741;SDS011;20968;42.696;23.360;2022-08-19T05:27:19;7.43;;;6.70;;
34741;SDS011;20968;42.696;23.360;2022-08-19T05:32:41;11.30;;;7.32;;
34741;SDS011;20968;42.696;23.360;2022-08-19T05:40:54;10.20;;;7.43;;
34741;SDS011;20968;42.696;23.360;2022-08-19T05:43:20;9.30;;;7.15;;
34741;SDS011;20968;42.696;23.360;2022-08-19T05:45:45;9.52;;;6.60;;
34741;SDS011;20968;42.696;23.360;2022-08-19T05:48:11;18.15;;;8.18;;
34741;SDS011;20968;42.696;23.360;2022-08-19T05:50:41;19.85;;;8.13;;
34741;SDS011;20968;42.696;23.360;2022-08-19T05:53:08;13.15;;;8.25;;
34741;SDS011;20968;42.696;23.360;2022-08-19T05:55:34;9.75;;;7.68;;
34741;SDS011;20968;42.696;23.360;2022-08-19T05:58:30;10.88;;;7.45;;
34741;SDS011;20968;42.696;23.360;2022-08-19T06:01:00;13.05;;;7.05;;
34741;SDS011;20968;42.696;23.360;2022-08-19T06:03:30;14.57;;;6.97;;
34741;SDS011;20968;42.696;23.360;2022-08-19T06:06:01;8.88;;;6.75;;
34741;SDS011;20968;42.696;23.360;2022-08-19T06:08:27;11.68;;;6.68;;
34741;SDS011;20968;42.696;23.360;2022-08-19T06:10:57;11.77;;;6.85;;
34741;SDS011;20968;42.696;23.360;2022-08-19T06:13:32;12.88;;;7.00;;
34741;SDS011;20968;42.696;23.360;2022-08-19T06:15:57;9.20;;;6.40;;
34741;SDS011;20968;42.696;23.360;2022-08-19T06:18:22;14.85;;;7.55;;
34741;SDS011;20968;42.696;23.360;2022-08-19T06:20:48;10.48;;;6.70;;
34741;SDS011;20968;42.696;23.360;2022-08-19T06:23:14;15.32;;;7.00;;
34741;SDS011;20968;42.696;23.360;2022-08-19T06:25:39;11.60;;;6.53;;
34741;SDS011;20968;42.696;23.360;2022-08-19T06:28:05;7.80;;;5.80;;
34741;SDS011;20968;42.696;23.360;2022-08-19T06:30:30;12.23;;;6.50;;
34741;SDS011;20968;42.696;23.360;2022-08-19T06:32:56;11.07;;;6.32;;
34741;SDS011;20968;42.696;23.360;2022-08-19T06:35:21;8.88;;;6.18;;
34741;SDS011;20968;42.696;23.360;2022-08-19T06:37:47;10.88;;;5.78;;
34741;SDS011;20968;42.696;23.360;2022-08-19T06:43:43;8.07;;;4.78;;
34741;SDS011;20968;42.696;23.360;2022-08-19T06:46:10;14.40;;;6.38;;
34741;SDS011;20968;42.696;23.360;2022-08-19T06:48:38;12.60;;;6.05;;
34741;SDS011;20968;42.696;23.360;2022-08-19T06:51:06;12.23;;;5.78;;
34741;SDS011;20968;42.696;23.360;2022-08-19T06:53:34;10.02;;;5.40;;
34741;SDS011;20968;42.696;23.360;2022-08-19T06:56:17;15.30;;;5.13;;
34741;SDS011;20968;42.696;23.360;2022-08-19T06:58:45;7.50;;;5.00;;
34741;SDS011;20968;42.696;23.360;2022-08-19T07:01:11;9.45;;;5.50;;
34741;SDS011;20968;42.696;23.360;2022-08-19T07:03:37;16.38;;;5.38;;
34741;SDS011;20968;42.696;23.360;2022-08-19T07:06:04;10.57;;;6.15;;
34741;SDS011;20968;42.696;23.360;2022-08-19T07:08:39;9.52;;;5.35;;
34741;SDS011;20968;42.696;23.360;2022-08-19T07:11:06;6.40;;;5.50;;
34741;SDS011;20968;42.696;23.360;2022-08-19T07:13:33;10.63;;;5.15;;
34741;SDS011;20968;42.696;23.360;2022-08-19T07:16:06;7.28;;;4.90;;
34741;SDS011;20968;42.696;23.360;2022-08-19T07:18:32;6.88;;;5.57;;
34741;SDS011;20968;42.696;23.360;2022-08-19T07:21:03;11.40;;;5.07;;
34741;SDS011;20968;42.696;23.360;2022-08-19T07:23:50;13.55;;;5.40;;
34741;SDS011;20968;42.696;23.360;2022-08-19T07:26:25;7.85;;;5.30;;
34741;SDS011;20968;42.696;23.360;2022-08-19T07:29:07;16.25;;;6.00;;
34741;SDS011;20968;42.696;23.360;2022-08-19T07:31:33;6.50;;;5.13;;
34741;SDS011;20968;42.696;23.360;2022-08-19T07:34:03;6.93;;;4.57;;
34741;SDS011;20968;42.696;23.360;2022-08-19T07:36:34;8.18;;;5.28;;
34741;SDS011;20968;42.696;23.360;2022-08-19T07:39:04;8.02;;;4.80;;
34741;SDS011;20968;42.696;23.360;2022-08-19T07:41:42;5.75;;;4.65;;
34741;SDS011;20968;42.696;23.360;2022-08-19T07:44:19;8.13;;;4.40;;
34741;SDS011;20968;42.696;23.360;2022-08-19T07:49:42;8.75;;;5.05;;
34741;SDS011;20968;42.696;23.360;2022-08-19T07:52:13;10.02;;;4.97;;
34741;SDS011;20968;42.696;23.360;2022-08-19T07:54:42;11.57;;;5.03;;
34741;SDS011;20968;42.696;23.360;2022-08-19T07:57:09;6.07;;;4.43;;
34741;SDS011;20968;42.696;23.360;2022-08-19T07:59:35;6.40;;;4.57;;
34741;SDS011;20968;42.696;23.360;2022-08-19T08:02:01;8.55;;;4.00;;
34741;SDS011;20968;42.696;23.360;2022-08-19T08:04:27;11.52;;;4.78;;
34741;SDS011;20968;42.696;23.360;2022-08-19T08:07:12;10.07;;;4.70;;
34741;SDS011;20968;42.696;23.360;2022-08-19T08:09:57;13.75;;;5.47;;
34741;SDS011;20968;42.696;23.360;2022-08-19T08:12:24;11.15;;;4.65;;
34741;SDS011;20968;42.696;23.360;2022-08-19T08:14:56;10.23;;;5.95;;
34741;SDS011;20968;42.696;23.360;2022-08-19T08:17:25;5.28;;;4.43;;
34741;SDS011;20968;42.696;23.360;2022-08-19T08:19:54;12.95;;;4.82;;
34741;SDS011;20968;42.696;23.360;2022-08-19T08:22:22;12.25;;;5.20;;
34741;SDS011;20968;42.696;23.360;2022-08-19T08:25:11;6.55;;;4.85;;
34741;SDS011;20968;42.696;23.360;2022-08-19T08:27:40;11.73;;;5.38;;
34741;SDS011;20968;42.696;23.360;2022-08-19T08:30:09;7.07;;;5.03;;
34741;SDS011;20968;42.696;23.360;2022-08-19T08:32:43;5.30;;;4.03;;
34741;SDS011;20968;42.696;23.360;2022-08-19T08:35:09;9.43;;;4.43;;
34741;SDS011;20968;42.696;23.360;2022-08-19T08:44:23;6.90;;;4.25;;
34741;SDS011;20968;42.696;23.360;2022-08-19T08:47:09;9.75;;;4.90;;
34741;SDS011;20968;42.696;23.360;2022-08-19T08:49:47;7.03;;;4.40;;
34741;SDS011;20968;42.696;23.360;2022-08-19T08:54:53;7.68;;;4.57;;
34741;SDS011;20968;42.696;23.360;2022-08-19T09:00:04;4.43;;;4.03;;
34741;SDS011;20968;42.696;23.360;2022-08-19T09:02:32;7.43;;;4.95;;
34741;SDS011;20968;42.696;23.360;2022-08-19T09:04:58;5.53;;;3.83;;
34741;SDS011;20968;42.696;23.360;2022-08-19T09:16:21;10.35;;;4.15;;
34741;SDS011;20968;42.696;23.360;2022-08-19T09:18:52;4.40;;;3.65;;
34741;SDS011;20968;42.696;23.360;2022-08-19T09:21:36;10.95;;;3.63;;
34741;SDS011;20968;42.696;23.360;2022-08-19T09:24:03;4.93;;;2.80;;
34741;SDS011;20968;42.696;23.360;2022-08-19T09:26:30;11.05;;;3.60;;
34741;SDS011;20968;42.696;23.360;2022-08-19T09:29:00;7.10;;;3.05;;
34741;SDS011;20968;42.696;23.360;2022-08-19T09:31:30;3.10;;;2.80;;
34741;SDS011;20968;42.696;23.360;2022-08-19T09:34:00;7.50;;;3.65;;
34741;SDS011;20968;42.696;23.360;2022-08-19T09:36:28;5.03;;;2.75;;
34741;SDS011;20968;42.696;23.360;2022-08-19T09:38:57;3.47;;;2.55;;
34741;SDS011;20968;42.696;23.360;2022-08-19T09:41:23;6.10;;;3.17;;
34741;SDS011;20968;42.696;23.360;2022-08-19T09:43:51;6.53;;;2.95;;
34741;SDS011;20968;42.696;23.360;2022-08-19T09:46:20;3.33;;;2.58;;
34741;SDS011;20968;42.696;23.360;2022-08-19T09:48:48;4.03;;;2.65;;
34741;SDS011;20968;42.696;23.360;2022-08-19T09:51:17;7.68;;;2.83;;
34741;SDS011;20968;42.696;23.360;2022-08-19T09:53:47;10.73;;;3.53;;
34741;SDS011;20968;42.696;23.360;2022-08-19T09:56:17;6.70;;;2.85;;
34741;SDS011;20968;42.696;23.360;2022-08-19T09:58:43;2.58;;;2.38;;
34741;SDS011;20968;42.696;23.360;2022-08-19T10:01:09;5.22;;;2.70;;
34741;SDS011;20968;42.696;23.360;2022-08-19T10:03:41;2.85;;;2.35;;
34741;SDS011;20968;42.696;23.360;2022-08-19T10:06:07;2.72;;;2.53;;
34741;SDS011;20968;42.696;23.360;2022-08-19T10:08:40;4.15;;;2.33;;
34741;SDS011;20968;42.696;23.360;2022-08-19T10:11:07;3.40;;;3.10;;
34741;SDS011;20968;42.696;23.360;2022-08-19T10:13:42;2.90;;;2.67;;
34741;SDS011;20968;42.696;23.360;2022-08-19T10:16:10;12.40;;;2.90;;
34741;SDS011;20968;42.696;23.360;2022-08-19T10:21:36;3.78;;;3.25;;
34741;SDS011;20968;42.696;23.360;2022-08-19T10:24:05;4.75;;;2.92;;
34741;SDS011;20968;42.696;23.360;2022-08-19T10:26:32;2.90;;;2.65;;
34741;SDS011;20968;42.696;23.360;2022-08-19T10:29:02;8.43;;;3.13;;
34741;SDS011;20968;42.696;23.360;2022-08-19T10:31:32;4.03;;;2.90;;
34741;SDS011;20968;42.696;23.360;2022-08-19T10:34:01;8.38;;;2.80;;
34741;SDS011;20968;42.696;23.360;2022-08-19T10:36:28;6.00;;;3.10;;
34741;SDS011;20968;42.696;23.360;2022-08-19T10:38:57;4.63;;;2.63;;
34741;SDS011;20968;42.696;23.360;2022-08-19T10:41:51;8.68;;;3.10;;
34741;SDS011;20968;42.696;23.360;2022-08-19T10:44:16;5.20;;;2.72;;
34741;SDS011;20968;42.696;23.360;2022-08-19T10:46:43;4.78;;;3.20;;
34741;SDS011;20968;42.696;23.360;2022-08-19T10:49:09;4.65;;;3.65;;
34741;SDS011;20968;42.696;23.360;2022-08-19T10:51:38;3.25;;;3.00;;
34741;SDS011;20968;42.696;23.360;2022-08-19T10:54:27;3.20;;;2.90;;
34741;SDS011;20968;42.696;23.360;2022-08-19T10:57:40;9.75;;;3.55;;
34741;SDS011;20968;42.696;23.360;2022-08-19T11:00:06;4.13;;;3.03;;
34741;SDS011;20968;42.696;23.360;2022-08-19T11:05:00;7.07;;;3.25;;
34741;SDS011;20968;42.696;23.360;2022-08-19T11:07:26;5.47;;;2.85;;
34741;SDS011;20968;42.696;23.360;2022-08-19T11:13:35;4.63;;;3.10;;
34741;SDS011;20968;42.696;23.360;2022-08-19T11:16:15;3.38;;;2.75;;
34741;SDS011;20968;42.696;23.360;2022-08-19T11:18:48;5.28;;;3.35;;
34741;SDS011;20968;42.696;23.360;2022-08-19T11:21:23;5.10;;;2.83;;
34741;SDS011;20968;42.696;23.360;2022-08-19T11:23:55;6.70;;;3.15;;
34741;SDS011;20968;42.696;23.360;2022-08-19T11:26:22;3.50;;;3.20;;
34741;SDS011;20968;42.696;23.360;2022-08-19T11:28:49;4.93;;;3.28;;
34741;SDS011;20968;42.696;23.360;2022-08-19T11:31:21;4.80;;;3.65;;
34741;SDS011;20968;42.696;23.360;2022-08-19T11:33:48;4.05;;;2.95;;
34741;SDS011;20968;42.696;23.360;2022-08-19T11:36:17;3.60;;;3.08;;
34741;SDS011;20968;42.696;23.360;2022-08-19T11:38:44;7.47;;;3.58;;
34741;SDS011;20968;42.696;23.360;2022-08-19T11:41:12;6.03;;;3.75;;
34741;SDS011;20968;42.696;23.360;2022-08-19T11:43:38;3.75;;;3.03;;
34741;SDS011;20968;42.696;23.360;2022-08-19T11:46:05;3.75;;;3.10;;
34741;SDS011;20968;42.696;23.360;2022-08-19T11:48:32;3.47;;;3.17;;
34741;SDS011;20968;42.696;23.360;2022-08-19T11:50:58;2.92;;;2.70;;
34741;SDS011;20968;42.696;23.360;2022-08-19T11:53:24;3.50;;;2.78;;
34741;SDS011;20968;42.696;23.360;2022-08-19T11:55:50;6.60;;;3.25;;
34741;SDS011;20968;42.696;23.360;2022-08-19T11:58:21;4.15;;;3.33;;
34741;SDS011;20968;42.696;23.360;2022-08-19T12:00:47;6.57;;;3.78;;
34741;SDS011;20968;42.696;23.360;2022-08-19T12:03:13;6.57;;;3.35;;
34741;SDS011;20968;42.696;23.360;2022-08-19T12:05:40;5.00;;;3.60;;
34741;SDS011;20968;42.696;23.360;2022-08-19T12:08:15;4.65;;;3.35;;
34741;SDS011;20968;42.696;23.360;2022-08-19T12:10:56;4.20;;;3.78;;
34741;SDS011;20968;42.696;23.360;2022-08-19T12:13:21;6.30;;;3.10;;
34741;SDS011;20968;42.696;23.360;2022-08-19T12:15:47;7.03;;;3.35;;
34741;SDS011;20968;42.696;23.360;2022-08-19T12:18:12;5.53;;;3.47;;
34741;SDS011;20968;42.696;23.360;2022-08-19T12:20:41;6.32;;;3.03;;
34741;SDS011;20968;42.696;23.360;2022-08-19T12:23:08;6.03;;;4.25;;
34741;SDS011;20968;42.696;23.360;2022-08-19T12:25:34;4.28;;;3.33;;
34741;SDS011;20968;42.696;23.360;2022-08-19T12:28:01;3.70;;;3.40;;
34741;SDS011;20968;42.696;23.360;2022-08-19T12:30:29;6.68;;;3.50;;
34741;SDS011;20968;42.696;23.360;2022-08-19T12:32:57;4.30;;;3.38;;
34741;SDS011;20968;42.696;23.360;2022-08-19T12:35:24;10.40;;;4.13;;
34741;SDS011;20968;42.696;23.360;2022-08-19T12:37:49;7.32;;;3.17;;
34741;SDS011;20968;42.696;23.360;2022-08-19T12:40:15;13.25;;;3.78;;
34741;SDS011;20968;42.696;23.360;2022-08-19T12:42:42;8.40;;;3.88;;
34741;SDS011;20968;42.696;23.360;2022-08-19T12:45:08;6.60;;;4.07;;
34741;SDS011;20968;42.696;23.360;2022-08-19T12:47:35;4.45;;;3.05;;
34741;SDS011;20968;42.696;23.360;2022-08-19T12:50:01;6.63;;;3.30;;
34741;SDS011;20968;42.696;23.360;2022-08-19T12:52:27;5.45;;;3.63;;
34741;SDS011;20968;42.696;23.360;2022-08-19T12:54:53;7.03;;;3.70;;
34741;SDS011;20968;42.696;23.360;2022-08-19T12:57:20;4.32;;;3.03;;
34741;SDS011;20968;42.696;23.360;2022-08-19T12:59:47;4.30;;;3.20;;
34741;SDS011;20968;42.696;23.360;2022-08-19T13:02:18;4.22;;;3.50;;
34741;SDS011;20968;42.696;23.360;2022-08-19T13:04:44;5.07;;;3.70;;
34741;SDS011;20968;42.696;23.360;2022-08-19T13:07:10;10.70;;;3.42;;
34741;SDS011;20968;42.696;23.360;2022-08-19T13:09:35;12.07;;;4.13;;
34741;SDS011;20968;42.696;23.360;2022-08-19T13:12:01;9.57;;;3.78;;
34741;SDS011;20968;42.696;23.360;2022-08-19T13:14:32;10.18;;;3.85;;
34741;SDS011;20968;42.696;23.360;2022-08-19T13:16:58;3.60;;;3.25;;
34741;SDS011;20968;42.696;23.360;2022-08-19T13:19:23;5.50;;;3.17;;
34741;SDS011;20968;42.696;23.360;2022-08-19T13:21:49;7.68;;;3.60;;
34741;SDS011;20968;42.696;23.360;2022-08-19T13:24:15;6.68;;;3.60;;
34741;SDS011;20968;42.696;23.360;2022-08-19T13:26:41;3.45;;;3.13;;
34741;SDS011;20968;42.696;23.360;2022-08-19T13:29:07;5.25;;;3.70;;
34741;SDS011;20968;42.696;23.360;2022-08-19T13:32:12;5.13;;;3.40;;
34741;SDS011;20968;42.696;23.360;2022-08-19T13:34:56;7.38;;;3.10;;
34741;SDS011;20968;42.696;23.360;2022-08-19T13:37:24;7.80;;;3.58;;
34741;SDS011;20968;42.696;23.360;2022-08-19T13:40:16;3.25;;;2.90;;
34741;SDS011;20968;42.696;23.360;2022-08-19T13:42:46;4.75;;;3.63;;
34741;SDS011;20968;42.696;23.360;2022-08-19T13:45:14;3.85;;;3.17;;
34741;SDS011;20968;42.696;23.360;2022-08-19T13:51:04;7.07;;;4.10;;
34741;SDS011;20968;42.696;23.360;2022-08-19T13:54:17;10.05;;;3.72;;
34741;SDS011;20968;42.696;23.360;2022-08-19T13:57:04;7.53;;;3.88;;
34741;SDS011;20968;42.696;23.360;2022-08-19T13:59:30;4.10;;;3.17;;
34741;SDS011;20968;42.696;23.360;2022-08-19T14:01:59;5.90;;;2.90;;
34741;SDS011;20968;42.696;23.360;2022-08-19T14:04:25;7.72;;;3.72;;
34741;SDS011;20968;42.696;23.360;2022-08-19T14:06:50;10.38;;;3.80;;
34741;SDS011;20968;42.696;23.360;2022-08-19T14:09:16;3.75;;;3.30;;
34741;SDS011;20968;42.696;23.360;2022-08-19T14:11:41;4.00;;;3.53;;
34741;SDS011;20968;42.696;23.360;2022-08-19T14:14:07;3.42;;;3.13;;
34741;SDS011;20968;42.696;23.360;2022-08-19T14:16:32;7.57;;;3.72;;
34741;SDS011;20968;42.696;23.360;2022-08-19T14:24:57;3.80;;;3.33;;
34741;SDS011;20968;42.696;23.360;2022-08-19T14:27:22;4.28;;;3.47;;
34741;SDS011;20968;42.696;23.360;2022-08-19T14:29:48;7.95;;;3.75;;
34741;SDS011;20968;42.696;23.360;2022-08-19T14:35:03;12.82;;;4.18;;
34741;SDS011;20968;42.696;23.360;2022-08-19T14:37:48;5.78;;;3.20;;
34741;SDS011;20968;42.696;23.360;2022-08-19T14:40:18;6.25;;;3.83;;
34741;SDS011;20968;42.696;23.360;2022-08-19T14:43:10;9.45;;;3.58;;
34741;SDS011;20968;42.696;23.360;2022-08-19T14:54:53;4.00;;;3.60;;
34741;SDS011;20968;42.696;23.360;2022-08-19T14:57:23;5.10;;;3.60;;
34741;SDS011;20968;42.696;23.360;2022-08-19T15:06:57;7.60;;;3.55;;
34741;SDS011;20968;42.696;23.360;2022-08-19T15:09:22;4.38;;;3.42;;
34741;SDS011;20968;42.696;23.360;2022-08-19T15:11:53;13.00;;;3.90;;
34741;SDS011;20968;42.696;23.360;2022-08-19T15:14:19;7.05;;;3.28;;
34741;SDS011;20968;42.696;23.360;2022-08-19T15:16:47;4.55;;;3.33;;
34741;SDS011;20968;42.696;23.360;2022-08-19T15:19:13;6.57;;;3.90;;
34741;SDS011;20968;42.696;23.360;2022-08-19T15:21:39;8.30;;;3.50;;
34741;SDS011;20968;42.696;23.360;2022-08-19T15:24:04;15.13;;;3.65;;
34741;SDS011;20968;42.696;23.360;2022-08-19T15:26:30;6.07;;;3.10;;
34741;SDS011;20968;42.696;23.360;2022-08-19T15:28:57;6.60;;;3.40;;
34741;SDS011;20968;42.696;23.360;2022-08-19T15:31:26;7.63;;;3.47;;
34741;SDS011;20968;42.696;23.360;2022-08-19T15:33:53;5.38;;;3.25;;
34741;SDS011;20968;42.696;23.360;2022-08-19T15:36:22;5.30;;;3.33;;
34741;SDS011;20968;42.696;23.360;2022-08-19T15:38:48;9.38;;;3.60;;
34741;SDS011;20968;42.696;23.360;2022-08-19T15:41:18;6.97;;;3.72;;
34741;SDS011;20968;42.696;23.360;2022-08-19T15:44:09;7.03;;;3.92;;
34741;SDS011;20968;42.696;23.360;2022-08-19T15:50:15;7.03;;;3.63;;
34741;SDS011;20968;42.696;23.360;2022-08-19T15:52:49;4.85;;;4.07;;
34741;SDS011;20968;42.696;23.360;2022-08-19T15:58:45;5.35;;;3.40;;
34741;SDS011;20968;42.696;23.360;2022-08-19T16:01:29;10.68;;;3.78;;
34741;SDS011;20968;42.696;23.360;2022-08-19T16:04:16;5.15;;;3.90;;
34741;SDS011;20968;42.696;23.360;2022-08-19T16:07:03;5.50;;;4.00;;
34741;SDS011;20968;42.696;23.360;2022-08-19T16:09:34;6.43;;;3.45;;
34741;SDS011;20968;42.696;23.360;2022-08-19T16:12:16;12.40;;;4.03;;
34741;SDS011;20968;42.696;23.360;2022-08-19T16:14:43;4.87;;;3.30;;
34741;SDS011;20968;42.696;23.360;2022-08-19T16:17:08;5.53;;;3.20;;
34741;SDS011;20968;42.696;23.360;2022-08-19T16:19:39;7.32;;;3.65;;
34741;SDS011;20968;42.696;23.360;2022-08-19T16:22:05;16.02;;;4.93;;
34741;SDS011;20968;42.696;23.360;2022-08-19T16:24:31;5.50;;;3.33;;
34741;SDS011;20968;42.696;23.360;2022-08-19T16:26:58;4.10;;;2.90;;